Time;durP1;ratioP1;P1;durP2;ratioP2;P2;SDS_P1;SDS_P2;PMS_P1;PMS_P2;Temp;Humidity;BMP_temperature;BMP_pressure;BME280_temperature;BME280_humidity;BME280_pressure;Samples;Min_cycle;Max_cycle;Signal;HPM_P1;HPM_P2
2023/02/06 00:01:18;;;;;;;12.00;5.00;;;;;;;;;;5083809;28;20834;-66
2023/02/06 00:03:43;;;;;;;11.27;4.43;;;;;;;;;;5087850;28;20107;-65
2023/02/06 00:06:09;;;;;;;12.83;4.63;;;;;;;;;;5091368;28;20519;-65
2023/02/06 00:08:34;;;;;;;12.47;4.67;;;;;;;;;;5090822;28;20031;-66
2023/02/06 00:11:03;;;;;;;12.47;4.83;;;;;;;;;;5090235;28;20069;-65
2023/02/06 00:13:29;;;;;;;16.80;5.72;;;;;;;;;;5091016;28;20461;-66
2023/02/06 00:15:54;;;;;;;12.07;4.88;;;;;;;;;;5090926;28;20024;-64
2023/02/06 00:18:19;;;;;;;16.70;5.78;;;;;;;;;;5090617;28;20077;-65
2023/02/06 00:20:44;;;;;;;16.83;5.95;;;;;;;;;;5087154;28;20118;-64
2023/02/06 00:23:09;;;;;;;15.23;5.65;;;;;;;;;;5082728;28;20028;-63
2023/02/06 00:25:34;;;;;;;16.60;5.63;;;;;;;;;;5091918;28;20016;-64
2023/02/06 00:28:00;;;;;;;14.47;5.60;;;;;;;;;;5078187;28;20036;-65
2023/02/06 00:30:25;;;;;;;15.98;5.72;;;;;;;;;;5070027;28;20024;-64
2023/02/06 00:32:50;;;;;;;18.27;6.03;;;;;;;;;;5070185;28;20470;-65
2023/02/06 00:35:15;;;;;;;16.85;5.47;;;;;;;;;;5085479;28;20583;-65
2023/02/06 00:37:40;;;;;;;15.70;5.73;;;;;;;;;;5085994;28;20063;-65
2023/02/06 00:40:06;;;;;;;14.07;5.63;;;;;;;;;;5091401;28;20020;-67
2023/02/06 00:42:32;;;;;;;16.90;5.53;;;;;;;;;;5089966;28;20049;-66
2023/02/06 00:44:57;;;;;;;12.53;5.63;;;;;;;;;;5090943;28;20099;-65
2023/02/06 00:47:22;;;;;;;14.90;6.05;;;;;;;;;;5096295;28;20031;-66
2023/02/06 00:49:47;;;;;;;15.05;5.82;;;;;;;;;;5090270;28;20033;-66
2023/02/06 00:52:12;;;;;;;13.00;5.47;;;;;;;;;;5085991;28;20150;-67
2023/02/06 00:54:37;;;;;;;13.95;5.55;;;;;;;;;;5076166;28;20035;-66
2023/02/06 00:57:02;;;;;;;15.55;5.57;;;;;;;;;;5076274;28;20020;-66
2023/02/06 00:59:28;;;;;;;16.73;6.30;;;;;;;;;;5074601;28;20017;-65
2023/02/06 01:01:53;;;;;;;14.15;4.75;;;;;;;;;;5066472;28;20721;-66
2023/02/06 01:04:18;;;;;;;13.73;4.90;;;;;;;;;;5068142;28;20013;-66
2023/02/06 01:06:43;;;;;;;14.10;5.33;;;;;;;;;;5069004;28;20290;-65
2023/02/06 01:09:08;;;;;;;16.35;5.20;;;;;;;;;;5079882;28;20510;-66
2023/02/06 01:11:34;;;;;;;14.70;5.28;;;;;;;;;;5085798;28;20054;-67
2023/02/06 01:13:59;;;;;;;11.70;4.72;;;;;;;;;;5089072;28;20059;-66
2023/02/06 01:16:24;;;;;;;13.15;4.80;;;;;;;;;;5093287;28;20055;-67
2023/02/06 01:18:50;;;;;;;11.90;5.07;;;;;;;;;;5093042;28;20081;-64
2023/02/06 01:21:16;;;;;;;13.50;5.10;;;;;;;;;;5092674;28;20042;-64
2023/02/06 01:23:41;;;;;;;15.95;4.93;;;;;;;;;;5093391;28;20016;-67
2023/02/06 01:26:14;;;;;;;11.60;4.30;;;;;;;;;;5092925;28;20074;-65
2023/02/06 01:28:40;;;;;;;10.95;4.55;;;;;;;;;;5076100;28;20032;-65
2023/02/06 01:31:11;;;;;;;12.07;4.55;;;;;;;;;;5071788;28;20058;-64
2023/02/06 01:33:36;;;;;;;12.40;4.18;;;;;;;;;;5072661;28;20036;-66
2023/02/06 01:36:01;;;;;;;11.83;4.00;;;;;;;;;;5072294;28;20013;-65
2023/02/06 01:38:26;;;;;;;11.47;4.27;;;;;;;;;;5077871;28;20103;-65
2023/02/06 01:40:56;;;;;;;9.65;3.53;;;;;;;;;;5091183;28;20069;-64
2023/02/06 01:43:21;;;;;;;10.80;3.42;;;;;;;;;;5093547;28;20020;-65
2023/02/06 01:45:46;;;;;;;10.23;3.58;;;;;;;;;;5087950;28;20070;-63
2023/02/06 01:48:13;;;;;;;9.73;4.07;;;;;;;;;;5093483;28;20039;-66
2023/02/06 01:50:40;;;;;;;9.27;3.75;;;;;;;;;;5092663;28;20013;-64
2023/02/06 01:53:05;;;;;;;9.82;3.40;;;;;;;;;;5093227;28;20028;-65
2023/02/06 01:55:31;;;;;;;8.95;3.30;;;;;;;;;;5093914;28;20012;-65
2023/02/06 01:57:56;;;;;;;9.18;3.55;;;;;;;;;;5081407;28;20029;-65
2023/02/06 02:00:21;;;;;;;9.67;3.73;;;;;;;;;;5072919;28;20042;-65
2023/02/06 02:02:47;;;;;;;9.73;3.03;;;;;;;;;;5088906;28;20050;-64
2023/02/06 02:05:13;;;;;;;9.88;3.58;;;;;;;;;;5093555;28;20377;-65
2023/02/06 02:08:00;;;;;;;10.52;3.80;;;;;;;;;;5093510;28;20034;-66
2023/02/06 02:10:26;;;;;;;9.40;3.13;;;;;;;;;;5092627;28;20023;-64
2023/02/06 02:12:51;;;;;;;10.70;3.40;;;;;;;;;;5089981;28;20020;-65
2023/02/06 02:15:16;;;;;;;8.75;3.40;;;;;;;;;;5090901;28;20020;-65
2023/02/06 02:18:01;;;;;;;11.43;3.30;;;;;;;;;;5093167;28;20027;-66
2023/02/06 02:20:32;;;;;;;9.70;3.30;;;;;;;;;;5070738;28;20485;-65
2023/02/06 02:23:15;;;;;;;9.05;3.38;;;;;;;;;;5070624;28;20428;-66
2023/02/06 02:25:40;;;;;;;8.88;3.42;;;;;;;;;;5071305;28;20035;-66
2023/02/06 02:28:19;;;;;;;9.27;3.33;;;;;;;;;;5098702;28;20020;-64
2023/02/06 02:31:00;;;;;;;8.70;3.05;;;;;;;;;;5086059;28;20658;-65
2023/02/06 02:33:28;;;;;;;8.63;2.90;;;;;;;;;;5081976;28;20020;-66
2023/02/06 02:36:02;;;;;;;10.00;3.50;;;;;;;;;;5074474;28;20533;-65
2023/02/06 02:38:33;;;;;;;9.40;3.17;;;;;;;;;;5072253;28;20421;-66
2023/02/06 02:41:09;;;;;;;7.75;3.13;;;;;;;;;;5083339;28;20059;-67
2023/02/06 02:43:41;;;;;;;10.60;3.35;;;;;;;;;;5091226;28;20043;-65
2023/02/06 02:46:12;;;;;;;9.02;2.92;;;;;;;;;;5083004;28;20040;-65
2023/02/06 02:48:39;;;;;;;10.57;3.42;;;;;;;;;;5072550;28;20028;-68
2023/02/06 02:51:04;;;;;;;12.02;3.15;;;;;;;;;;5079039;28;20530;-66
2023/02/06 02:53:30;;;;;;;12.23;3.70;;;;;;;;;;5083522;28;20019;-65
2023/02/06 02:55:55;;;;;;;9.68;3.58;;;;;;;;;;5083144;28;20058;-65
2023/02/06 02:58:22;;;;;;;10.15;3.22;;;;;;;;;;5088387;28;20032;-65
2023/02/06 03:00:49;;;;;;;9.40;3.28;;;;;;;;;;5081975;28;20033;-66
2023/02/06 03:03:17;;;;;;;9.85;3.30;;;;;;;;;;5069767;28;20035;-66
2023/02/06 03:05:51;;;;;;;9.43;3.28;;;;;;;;;;5071645;28;20466;-66
2023/02/06 03:08:24;;;;;;;8.48;3.30;;;;;;;;;;5074832;28;20036;-66
2023/02/06 03:10:49;;;;;;;;;;;;;;;;;;5092267;28;20060;-65
2023/02/06 03:13:21;;;;;;;7.85;2.88;;;;;;;;;;5074813;28;19960;-65
2023/02/06 03:16:05;;;;;;;9.38;3.33;;;;;;;;;;5070882;28;20123;-64
2023/02/06 03:18:34;;;;;;;11.40;3.25;;;;;;;;;;5076225;28;20035;-64
2023/02/06 03:21:00;;;;;;;11.20;3.22;;;;;;;;;;5089034;28;20084;-65
2023/02/06 03:23:29;;;;;;;10.52;3.42;;;;;;;;;;5090308;28;20019;-65
2023/02/06 03:25:56;;;;;;;9.38;3.50;;;;;;;;;;5091055;28;20058;-64
2023/02/06 03:28:23;;;;;;;10.70;3.45;;;;;;;;;;5085830;28;20080;-64
2023/02/06 03:30:52;;;;;;;9.52;3.50;;;;;;;;;;5077509;28;20479;-64
2023/02/06 03:33:18;;;;;;;9.85;3.28;;;;;;;;;;5090110;28;20032;-65
2023/02/06 03:35:44;;;;;;;12.45;3.75;;;;;;;;;;5075252;28;20021;-64
2023/02/06 03:38:09;;;;;;;10.82;3.70;;;;;;;;;;5079830;28;20053;-68
2023/02/06 03:40:35;;;;;;;10.38;3.85;;;;;;;;;;5089124;28;20032;-64
2023/02/06 03:43:01;;;;;;;9.65;3.70;;;;;;;;;;5089887;28;20035;-65
2023/02/06 03:45:28;;;;;;;12.15;4.00;;;;;;;;;;5075394;28;20028;-65
2023/02/06 03:47:55;;;;;;;11.75;3.78;;;;;;;;;;5088270;28;20401;-65
2023/02/06 03:50:22;;;;;;;10.10;3.50;;;;;;;;;;5087131;28;20027;-64
2023/02/06 03:52:49;;;;;;;11.57;3.75;;;;;;;;;;5089629;28;20029;-65
2023/02/06 03:55:19;;;;;;;9.73;3.90;;;;;;;;;;5076751;28;20024;-65
2023/02/06 03:57:47;;;;;;;11.07;4.07;;;;;;;;;;5077696;28;20028;-65
2023/02/06 04:00:13;;;;;;;12.43;3.85;;;;;;;;;;5090098;28;20069;-65
2023/02/06 04:02:38;;;;;;;10.50;3.97;;;;;;;;;;5082415;28;20020;-65
2023/02/06 04:05:04;;;;;;;12.00;4.40;;;;;;;;;;5070977;28;20012;-64
2023/02/06 04:07:31;;;;;;;16.15;4.32;;;;;;;;;;5074245;28;20115;-65
2023/02/06 04:09:56;;;;;;;14.48;4.82;;;;;;;;;;5090944;28;20028;-65
2023/02/06 04:12:22;;;;;;;11.57;3.97;;;;;;;;;;5075074;28;20151;-66
2023/02/06 04:14:47;;;;;;;14.73;4.78;;;;;;;;;;5070462;28;20071;-66
2023/02/06 04:17:13;;;;;;;13.38;4.20;;;;;;;;;;5071404;28;20028;-65
2023/02/06 04:19:38;;;;;;;12.30;4.25;;;;;;;;;;5078544;28;20457;-66
2023/02/06 04:22:04;;;;;;;15.43;5.15;;;;;;;;;;5076567;28;20052;-65
2023/02/06 04:24:30;;;;;;;14.23;5.00;;;;;;;;;;5086948;28;20023;-65
2023/02/06 04:26:55;;;;;;;12.13;4.57;;;;;;;;;;5084083;28;20059;-64
2023/02/06 04:29:20;;;;;;;13.98;4.80;;;;;;;;;;5083501;28;20013;-65
2023/02/06 04:31:45;;;;;;;15.00;4.67;;;;;;;;;;5070247;28;20036;-64
2023/02/06 04:34:11;;;;;;;11.90;4.57;;;;;;;;;;5088026;28;20048;-65
2023/02/06 04:36:36;;;;;;;13.00;4.35;;;;;;;;;;5077065;28;20466;-66
2023/02/06 04:39:04;;;;;;;13.93;4.70;;;;;;;;;;5088501;28;20084;-64
2023/02/06 04:41:29;;;;;;;14.65;5.07;;;;;;;;;;5075332;28;20402;-64
2023/02/06 04:43:54;;;;;;;11.95;4.25;;;;;;;;;;5079340;28;20097;-65
2023/02/06 04:46:19;;;;;;;12.20;4.13;;;;;;;;;;5084294;28;20210;-65
2023/02/06 04:48:44;;;;;;;13.77;5.50;;;;;;;;;;5070117;28;20037;-64
2023/02/06 04:51:09;;;;;;;12.50;4.70;;;;;;;;;;5076881;28;20081;-65
2023/02/06 04:53:35;;;;;;;11.97;4.40;;;;;;;;;;5078237;28;20016;-65
2023/02/06 04:56:01;;;;;;;13.77;4.63;;;;;;;;;;5070587;28;20473;-65
2023/02/06 04:58:26;;;;;;;14.02;4.53;;;;;;;;;;5077479;28;20492;-65
2023/02/06 05:00:51;;;;;;;13.63;4.35;;;;;;;;;;5082327;28;20051;-64
2023/02/06 05:03:16;;;;;;;13.77;4.95;;;;;;;;;;5106912;28;20031;-64
2023/02/06 05:05:41;;;;;;;13.88;4.35;;;;;;;;;;5098019;28;20023;-65
2023/02/06 05:08:06;;;;;;;10.45;4.20;;;;;;;;;;5078315;28;20082;-65
2023/02/06 05:10:32;;;;;;;13.05;4.45;;;;;;;;;;5087748;28;20031;-67
2023/02/06 05:12:57;;;;;;;11.90;5.07;;;;;;;;;;5086403;28;20025;-67
2023/02/06 05:15:22;;;;;;;13.37;4.40;;;;;;;;;;5085343;28;20005;-65
2023/02/06 05:17:47;;;;;;;11.80;4.23;;;;;;;;;;5097673;28;20035;-66
2023/02/06 05:20:12;;;;;;;15.20;5.05;;;;;;;;;;5102342;28;20023;-70
2023/02/06 05:22:37;;;;;;;13.70;4.97;;;;;;;;;;5102416;28;20027;-67
2023/02/06 05:25:02;;;;;;;16.13;4.43;;;;;;;;;;5103685;28;20004;-66
2023/02/06 05:27:28;;;;;;;12.27;4.83;;;;;;;;;;5084280;28;20127;-64
2023/02/06 05:29:53;;;;;;;14.17;5.17;;;;;;;;;;5078016;28;20032;-65
2023/02/06 05:32:18;;;;;;;16.47;5.70;;;;;;;;;;5075941;28;20035;-65
2023/02/06 05:34:43;;;;;;;14.03;5.23;;;;;;;;;;5082057;28;20020;-65
2023/02/06 05:37:09;;;;;;;13.77;4.90;;;;;;;;;;5086031;28;20461;-64
2023/02/06 05:39:34;;;;;;;12.60;4.88;;;;;;;;;;5094642;28;20102;-66
2023/02/06 05:41:59;;;;;;;13.82;5.72;;;;;;;;;;5085776;28;20101;-65
2023/02/06 05:44:24;;;;;;;14.25;4.82;;;;;;;;;;5086315;28;20039;-66
2023/02/06 05:46:49;;;;;;;14.87;5.40;;;;;;;;;;5069401;28;20143;-66
2023/02/06 05:49:14;;;;;;;15.13;6.00;;;;;;;;;;5070025;28;20020;-65
2023/02/06 05:51:39;;;;;;;18.53;5.97;;;;;;;;;;5065444;28;20596;-65
2023/02/06 05:54:05;;;;;;;15.38;4.97;;;;;;;;;;5066381;28;20461;-69
2023/02/06 05:56:30;;;;;;;15.32;5.32;;;;;;;;;;5075875;28;20020;-65
2023/02/06 05:58:55;;;;;;;15.15;5.70;;;;;;;;;;5087597;28;20032;-67
2023/02/06 06:01:20;;;;;;;13.47;5.10;;;;;;;;;;5089165;28;20024;-68
2023/02/06 06:03:45;;;;;;;17.57;5.63;;;;;;;;;;5091383;28;20024;-67
2023/02/06 06:06:10;;;;;;;13.38;5.45;;;;;;;;;;5095075;28;20023;-66
2023/02/06 06:08:36;;;;;;;17.57;6.30;;;;;;;;;;5103436;28;20039;-69
2023/02/06 06:11:01;;;;;;;14.93;5.70;;;;;;;;;;5102936;28;20062;-67
2023/02/06 06:13:26;;;;;;;17.63;6.32;;;;;;;;;;5110165;28;20556;-69
2023/02/06 06:15:51;;;;;;;18.07;6.43;;;;;;;;;;5103191;28;20089;-68
2023/02/06 06:18:17;;;;;;;17.67;6.50;;;;;;;;;;5084571;28;20038;-64
2023/02/06 06:20:43;;;;;;;20.15;6.18;;;;;;;;;;5085266;28;20024;-65
2023/02/06 06:23:08;;;;;;;18.47;6.63;;;;;;;;;;5077745;28;20013;-65
2023/02/06 06:25:34;;;;;;;17.33;6.03;;;;;;;;;;5080602;28;20025;-65
2023/02/06 06:27:59;;;;;;;15.98;6.68;;;;;;;;;;5072877;28;20039;-64
2023/02/06 06:30:24;;;;;;;17.30;6.53;;;;;;;;;;5075437;28;20020;-65
2023/02/06 06:32:50;;;;;;;18.23;6.93;;;;;;;;;;5093513;28;20376;-64
2023/02/06 06:35:15;;;;;;;15.75;6.82;;;;;;;;;;5093682;28;20020;-66
2023/02/06 06:37:40;;;;;;;17.57;6.40;;;;;;;;;;5093367;28;20435;-65
2023/02/06 06:40:06;;;;;;;19.10;6.90;;;;;;;;;;5092311;28;20385;-64
2023/02/06 06:42:31;;;;;;;14.57;5.80;;;;;;;;;;5091052;28;20042;-65
2023/02/06 06:44:57;;;;;;;15.25;6.53;;;;;;;;;;5082344;28;20020;-66
2023/02/06 06:47:22;;;;;;;18.15;6.60;;;;;;;;;;5090322;28;20116;-65
2023/02/06 06:49:47;;;;;;;15.17;6.23;;;;;;;;;;5093369;28;20020;-65
2023/02/06 06:52:13;;;;;;;21.52;6.80;;;;;;;;;;5083512;28;20021;-64
2023/02/06 06:54:38;;;;;;;16.90;6.70;;;;;;;;;;5089023;28;20381;-63
2023/02/06 06:57:03;;;;;;;16.63;6.65;;;;;;;;;;5082546;28;20025;-64
2023/02/06 06:59:28;;;;;;;14.88;5.75;;;;;;;;;;5077032;28;20021;-64
2023/02/06 07:01:53;;;;;;;17.43;5.50;;;;;;;;;;5087784;28;20082;-63
2023/02/06 07:04:19;;;;;;;14.50;5.47;;;;;;;;;;5084921;28;20184;-65
2023/02/06 07:06:45;;;;;;;18.15;6.45;;;;;;;;;;5086620;28;20036;-65
2023/02/06 07:09:10;;;;;;;18.57;6.50;;;;;;;;;;5078795;28;20016;-64
2023/02/06 07:11:35;;;;;;;16.33;5.90;;;;;;;;;;5073053;28;20032;-67
2023/02/06 07:14:00;;;;;;;17.92;6.22;;;;;;;;;;5072708;28;20024;-64
2023/02/06 07:16:25;;;;;;;14.90;5.90;;;;;;;;;;5082711;28;20028;-65
2023/02/06 07:18:50;;;;;;;19.17;6.10;;;;;;;;;;5085615;28;20109;-64
2023/02/06 07:21:18;;;;;;;15.53;6.10;;;;;;;;;;5083012;28;20028;-65
2023/02/06 07:23:44;;;;;;;14.13;5.95;;;;;;;;;;5076417;28;20044;-65
2023/02/06 07:26:09;;;;;;;14.40;6.00;;;;;;;;;;5089305;28;20054;-65
2023/02/06 07:28:34;;;;;;;16.43;5.50;;;;;;;;;;5085447;28;20036;-64
2023/02/06 07:31:00;;;;;;;15.48;5.97;;;;;;;;;;5073880;28;20485;-66
2023/02/06 07:33:25;;;;;;;12.93;5.70;;;;;;;;;;5076437;28;20077;-65
2023/02/06 07:35:50;;;;;;;14.30;5.78;;;;;;;;;;5091177;28;20020;-63
2023/02/06 07:38:15;;;;;;;14.07;5.68;;;;;;;;;;5083944;28;20146;-66
2023/02/06 07:40:40;;;;;;;14.48;5.82;;;;;;;;;;5077212;28;20023;-64
2023/02/06 07:43:06;;;;;;;17.27;6.07;;;;;;;;;;5071771;28;20439;-64
2023/02/06 07:45:31;;;;;;;16.90;5.82;;;;;;;;;;5082961;28;20021;-64
2023/02/06 07:47:56;;;;;;;15.35;5.55;;;;;;;;;;5089204;28;20078;-66
2023/02/06 07:50:21;;;;;;;12.73;5.77;;;;;;;;;;5087324;28;20028;-63
2023/02/06 07:52:46;;;;;;;16.45;5.57;;;;;;;;;;5084577;28;20028;-67
2023/02/06 07:55:12;;;;;;;14.35;5.22;;;;;;;;;;5076896;28;20012;-65
2023/02/06 07:57:37;;;;;;;16.10;5.60;;;;;;;;;;5076425;28;20060;-65
2023/02/06 08:00:03;;;;;;;15.33;6.00;;;;;;;;;;5071656;28;20028;-66
2023/02/06 08:02:28;;;;;;;15.20;6.25;;;;;;;;;;5081102;28;20039;-64
2023/02/06 08:04:53;;;;;;;14.10;5.47;;;;;;;;;;5092141;28;20533;-66
2023/02/06 08:07:18;;;;;;;16.58;5.90;;;;;;;;;;5080527;28;20073;-68
2023/02/06 08:09:43;;;;;;;19.98;6.85;;;;;;;;;;5075025;28;20347;-67
2023/02/06 08:12:09;;;;;;;15.87;5.90;;;;;;;;;;5079961;28;20020;-68
2023/02/06 08:14:34;;;;;;;15.05;6.40;;;;;;;;;;5089089;28;20039;-66
2023/02/06 08:16:59;;;;;;;19.87;7.40;;;;;;;;;;5110173;28;20083;-69
2023/02/06 08:19:24;;;;;;;16.93;6.43;;;;;;;;;;5110564;28;20019;-69
2023/02/06 08:21:50;;;;;;;16.63;6.53;;;;;;;;;;5107054;28;20019;-66
2023/02/06 08:24:15;;;;;;;15.70;6.75;;;;;;;;;;5110839;28;20373;-70
2023/02/06 08:26:40;;;;;;;16.90;6.78;;;;;;;;;;5098646;28;20019;-67
2023/02/06 08:29:06;;;;;;;17.37;6.83;;;;;;;;;;5094121;28;20028;-67
2023/02/06 08:31:33;;;;;;;15.18;6.55;;;;;;;;;;5085926;28;20031;-66
2023/02/06 08:33:58;;;;;;;17.20;7.53;;;;;;;;;;5096003;28;20437;-68
2023/02/06 08:36:24;;;;;;;14.63;7.07;;;;;;;;;;5101953;28;20020;-68
2023/02/06 08:38:51;;;;;;;15.85;6.43;;;;;;;;;;5094072;28;20082;-66
2023/02/06 08:41:17;;;;;;;16.73;6.57;;;;;;;;;;5090622;28;20023;-67
2023/02/06 08:43:42;;;;;;;15.45;6.25;;;;;;;;;;5091373;28;20024;-67
2023/02/06 08:46:07;;;;;;;16.30;7.07;;;;;;;;;;5081607;28;20362;-67
2023/02/06 08:48:32;;;;;;;14.63;6.53;;;;;;;;;;5090833;28;20032;-66
2023/02/06 08:51:04;;;;;;;20.75;7.55;;;;;;;;;;5088676;28;20078;-66
2023/02/06 08:53:29;;;;;;;15.85;6.65;;;;;;;;;;5090857;28;20385;-67
2023/02/06 08:56:02;;;;;;;18.05;7.00;;;;;;;;;;5090709;28;20031;-67
2023/02/06 08:58:27;;;;;;;18.00;7.30;;;;;;;;;;5090262;28;20043;-66
2023/02/06 09:00:52;;;;;;;17.07;7.50;;;;;;;;;;5087446;28;20016;-68
2023/02/06 09:03:19;;;;;;;17.23;6.77;;;;;;;;;;5086340;28;20026;-66
2023/02/06 09:05:44;;;;;;;16.70;7.55;;;;;;;;;;5091638;28;20117;-68
2023/02/06 09:08:09;;;;;;;18.60;7.57;;;;;;;;;;5091339;28;20419;-66
2023/02/06 09:10:35;;;;;;;18.23;7.38;;;;;;;;;;5089842;28;20024;-71
2023/02/06 09:13:00;;;;;;;17.63;7.00;;;;;;;;;;5090751;28;20108;-66
2023/02/06 09:15:25;;;;;;;16.50;7.53;;;;;;;;;;5086768;28;20389;-68
2023/02/06 09:17:50;;;;;;;20.33;7.60;;;;;;;;;;5089770;28;20020;-67
2023/02/06 09:20:15;;;;;;;17.70;7.25;;;;;;;;;;5083678;28;20020;-68
2023/02/06 09:22:43;;;;;;;17.13;7.70;;;;;;;;;;5070695;28;20023;-68
2023/02/06 09:25:08;;;;;;;19.48;8.30;;;;;;;;;;5069610;28;20466;-68
2023/02/06 09:27:33;;;;;;;16.20;7.53;;;;;;;;;;5078040;28;20098;-67
2023/02/06 09:29:58;;;;;;;17.92;7.78;;;;;;;;;;5089722;28;20020;-70
2023/02/06 09:32:23;;;;;;;19.13;8.73;;;;;;;;;;5090978;28;20579;-67
2023/02/06 09:34:48;;;;;;;18.30;8.00;;;;;;;;;;5090977;28;20020;-69
2023/02/06 09:37:14;;;;;;;22.75;8.32;;;;;;;;;;5093883;28;20635;-69
2023/02/06 09:39:39;;;;;;;18.80;7.80;;;;;;;;;;5093312;28;20024;-67
2023/02/06 09:42:14;;;;;;;17.45;7.60;;;;;;;;;;5091321;28;20024;-68
2023/02/06 09:44:58;;;;;;;18.52;7.88;;;;;;;;;;5095071;28;20488;-69
2023/02/06 09:47:26;;;;;;;14.68;7.20;;;;;;;;;;5095389;28;20020;-68
2023/02/06 09:49:53;;;;;;;18.33;7.82;;;;;;;;;;5093451;28;20362;-69
2023/02/06 09:52:29;;;;;;;15.98;7.35;;;;;;;;;;5093761;28;20044;-67
2023/02/06 09:55:07;;;;;;;16.98;7.38;;;;;;;;;;5093801;28;20382;-68
2023/02/06 09:57:47;;;;;;;19.05;8.05;;;;;;;;;;5091563;28;20351;-67
2023/02/06 10:00:17;;;;;;;15.73;7.30;;;;;;;;;;5090825;28;20035;-68
2023/02/06 10:02:58;;;;;;;15.38;7.32;;;;;;;;;;5094107;28;20024;-68
2023/02/06 10:05:36;;;;;;;21.48;8.05;;;;;;;;;;5094440;28;20449;-68
2023/02/06 10:08:14;;;;;;;18.27;7.80;;;;;;;;;;5093826;28;20032;-67
2023/02/06 10:10:44;;;;;;;17.30;8.15;;;;;;;;;;5093262;28;20353;-67
2023/02/06 10:13:19;;;;;;;17.92;8.20;;;;;;;;;;5093581;28;20024;-68
2023/02/06 10:15:46;;;;;;;21.80;8.10;;;;;;;;;;5083212;28;20035;-69
2023/02/06 10:18:16;;;;;;;20.27;8.00;;;;;;;;;;5095065;28;20016;-68
2023/02/06 10:20:54;;;;;;;21.60;8.93;;;;;;;;;;5096433;28;20488;-67
2023/02/06 10:23:28;;;;;;;20.13;9.35;;;;;;;;;;5093296;28;20027;-68
2023/02/06 10:26:02;;;;;;;18.98;8.77;;;;;;;;;;5093480;28;20023;-67
2023/02/06 10:28:28;;;;;;;20.13;8.80;;;;;;;;;;5093398;28;20028;-67
2023/02/06 10:30:59;;;;;;;20.92;8.32;;;;;;;;;;5087999;28;20031;-68
2023/02/06 10:33:43;;;;;;;15.70;7.95;;;;;;;;;;5093198;28;20020;-67
2023/02/06 10:36:21;;;;;;;17.30;7.80;;;;;;;;;;5093171;28;20023;-68
2023/02/06 10:38:52;;;;;;;18.77;8.65;;;;;;;;;;5092715;28;20035;-70
2023/02/06 10:41:46;;;;;;;24.38;9.45;;;;;;;;;;5092368;28;20012;-69
2023/02/06 10:44:27;;;;;;;23.30;9.50;;;;;;;;;;5072967;28;20028;-67
2023/02/06 10:46:53;;;;;;;22.48;9.68;;;;;;;;;;5089041;28;20054;-68
2023/02/06 10:49:18;;;;;;;26.08;11.35;;;;;;;;;;5092131;28;20056;-71
2023/02/06 10:51:47;;;;;;;20.73;9.43;;;;;;;;;;5092393;28;20012;-70
2023/02/06 10:54:17;;;;;;;22.52;10.68;;;;;;;;;;5084244;28;20021;-67
2023/02/06 10:56:44;;;;;;;19.55;9.43;;;;;;;;;;5072898;28;20024;-67
2023/02/06 10:59:16;;;;;;;18.23;9.05;;;;;;;;;;5084948;28;20020;-66
2023/02/06 11:01:43;;;;;;;23.85;11.23;;;;;;;;;;5088108;28;20024;-66
2023/02/06 11:04:14;;;;;;;22.92;11.30;;;;;;;;;;5094064;28;20027;-68
2023/02/06 11:06:41;;;;;;;28.75;11.60;;;;;;;;;;5092855;28;20031;-67
2023/02/06 11:09:07;;;;;;;24.33;10.32;;;;;;;;;;5092594;28;20032;-69
2023/02/06 11:11:35;;;;;;;23.77;10.40;;;;;;;;;;5092907;28;20020;-67
2023/02/06 11:14:21;;;;;;;21.48;10.60;;;;;;;;;;5094479;28;20036;-69
2023/02/06 11:16:46;;;;;;;20.13;10.02;;;;;;;;;;5090099;28;20064;-68
2023/02/06 11:19:16;;;;;;;23.60;10.20;;;;;;;;;;5092962;28;20420;-69
2023/02/06 11:21:49;;;;;;;24.42;10.23;;;;;;;;;;5093318;28;20019;-69
2023/02/06 11:24:15;;;;;;;21.95;10.40;;;;;;;;;;5086937;28;20391;-69
2023/02/06 11:26:41;;;;;;;27.67;12.77;;;;;;;;;;5096989;28;20024;-67
2023/02/06 11:29:15;;;;;;;26.58;11.80;;;;;;;;;;5101724;28;20023;-68
2023/02/06 11:31:42;;;;;;;28.60;12.52;;;;;;;;;;5101140;28;20020;-68
2023/02/06 11:34:18;;;;;;;26.73;12.18;;;;;;;;;;5095537;28;20023;-68
2023/02/06 11:36:43;;;;;;;28.10;11.93;;;;;;;;;;5092454;28;20024;-68
2023/02/06 11:39:38;;;;;;;23.97;10.80;;;;;;;;;;5086097;28;20030;-68
2023/02/06 11:42:17;;;;;;;21.33;10.48;;;;;;;;;;5090222;28;20036;-70
2023/02/06 11:44:44;;;;;;;24.40;10.88;;;;;;;;;;5091753;28;20043;-68
2023/02/06 11:47:29;;;;;;;26.35;12.55;;;;;;;;;;5091890;28;20672;-69
2023/02/06 11:49:55;;;;;;;22.95;11.38;;;;;;;;;;5091516;28;20115;-67
2023/02/06 11:52:30;;;;;;;24.30;11.57;;;;;;;;;;5087531;28;20090;-67
2023/02/06 11:55:00;;;;;;;23.55;11.38;;;;;;;;;;5091603;28;20028;-69
2023/02/06 11:57:26;;;;;;;24.67;10.38;;;;;;;;;;5091955;28;20027;-68
2023/02/06 11:59:53;;;;;;;23.67;11.60;;;;;;;;;;5090467;28;20405;-68
2023/02/06 12:02:32;;;;;;;22.40;11.40;;;;;;;;;;5082486;28;20022;-67
2023/02/06 12:05:01;;;;;;;25.42;11.43;;;;;;;;;;5098556;28;20032;-69
2023/02/06 12:07:36;;;;;;;25.90;11.60;;;;;;;;;;5096975;28;20036;-68
2023/02/06 12:10:02;;;;;;;23.63;10.85;;;;;;;;;;5090920;28;20011;-69
2023/02/06 12:12:31;;;;;;;21.90;10.90;;;;;;;;;;5091577;28;20028;-68
2023/02/06 12:14:59;;;;;;;24.55;12.32;;;;;;;;;;5091047;28;20020;-68
2023/02/06 12:17:41;;;;;;;23.63;11.25;;;;;;;;;;5084744;28;20031;-68
2023/02/06 12:20:09;;;;;;;20.83;10.73;;;;;;;;;;5090683;28;20024;-67
2023/02/06 12:22:38;;;;;;;21.92;10.73;;;;;;;;;;5090784;28;20024;-68
2023/02/06 12:25:03;;;;;;;23.00;11.05;;;;;;;;;;5090967;28;20024;-68
2023/02/06 12:27:38;;;;;;;22.42;10.63;;;;;;;;;;5091010;28;20473;-68
2023/02/06 12:30:25;;;;;;;22.67;11.00;;;;;;;;;;5088582;28;20052;-67
2023/02/06 12:32:52;;;;;;;23.52;10.93;;;;;;;;;;5085530;28;20023;-67
2023/02/06 12:35:20;;;;;;;23.70;11.30;;;;;;;;;;5090499;28;20073;-67
2023/02/06 12:37:54;;;;;;;23.17;12.20;;;;;;;;;;5091418;28;20020;-69
2023/02/06 12:40:35;;;;;;;23.60;11.07;;;;;;;;;;5090179;28;20525;-69
2023/02/06 12:43:01;;;;;;;21.80;10.00;;;;;;;;;;5090863;28;20020;-67
2023/02/06 12:45:44;;;;;;;20.20;9.57;;;;;;;;;;5090737;28;20552;-67
2023/02/06 12:48:14;;;;;;;25.15;11.15;;;;;;;;;;5088969;28;20040;-67
2023/02/06 12:50:45;;;;;;;20.08;10.38;;;;;;;;;;5089937;28;20020;-67
2023/02/06 12:53:15;;;;;;;20.70;9.70;;;;;;;;;;5090820;28;20098;-67
2023/02/06 12:55:40;;;;;;;21.02;9.02;;;;;;;;;;5077146;28;20024;-67
2023/02/06 12:58:21;;;;;;;20.38;10.10;;;;;;;;;;5090433;28;20039;-70
2023/02/06 13:01:01;;;;;;;20.40;9.40;;;;;;;;;;5086834;28;20017;-67
2023/02/06 13:03:28;;;;;;;19.77;9.85;;;;;;;;;;5088652;28;20485;-67
2023/02/06 13:06:02;;;;;;;19.20;9.05;;;;;;;;;;5090590;28;20016;-67
2023/02/06 13:08:29;;;;;;;20.38;9.45;;;;;;;;;;5090182;28;20028;-68
2023/02/06 13:11:05;;;;;;;19.83;9.25;;;;;;;;;;5089017;28;20042;-67
2023/02/06 13:13:35;;;;;;;17.80;8.93;;;;;;;;;;5090107;28;20016;-67
2023/02/06 13:16:01;;;;;;;17.17;8.48;;;;;;;;;;5083577;28;20055;-67
2023/02/06 13:18:35;;;;;;;17.10;8.50;;;;;;;;;;5090714;28;20381;-67
2023/02/06 13:21:18;;;;;;;14.32;7.50;;;;;;;;;;5079057;28;20029;-71
2023/02/06 13:23:50;;;;;;;15.73;7.70;;;;;;;;;;5084455;28;20489;-67
2023/02/06 13:26:15;;;;;;;16.50;8.18;;;;;;;;;;5090200;28;20039;-70
2023/02/06 13:28:41;;;;;;;17.53;8.47;;;;;;;;;;5088022;28;20028;-68
2023/02/06 13:31:20;;;;;;;17.48;7.90;;;;;;;;;;5086378;28;20481;-69
2023/02/06 13:33:53;;;;;;;16.55;7.35;;;;;;;;;;5089866;28;20052;-67
2023/02/06 13:36:36;;;;;;;15.13;7.85;;;;;;;;;;5090533;28;20365;-69
2023/02/06 13:39:12;;;;;;;16.40;7.97;;;;;;;;;;5090391;28;20107;-68
2023/02/06 13:41:37;;;;;;;13.85;6.40;;;;;;;;;;5089472;28;20095;-67
2023/02/06 13:44:05;;;;;;;13.80;6.17;;;;;;;;;;5085924;28;20517;-68
2023/02/06 13:46:42;;;;;;;13.55;5.50;;;;;;;;;;5087840;28;20035;-65
2023/02/06 13:49:26;;;;;;;12.45;6.55;;;;;;;;;;5091922;28;20434;-67
2023/02/06 13:51:58;;;;;;;14.90;5.68;;;;;;;;;;5091861;28;20056;-67
2023/02/06 13:54:23;;;;;;;9.65;5.15;;;;;;;;;;5089866;28;20423;-69
2023/02/06 13:56:51;;;;;;;11.93;5.00;;;;;;;;;;5090420;28;20427;-68
2023/02/06 13:59:23;;;;;;;9.68;4.18;;;;;;;;;;5087694;28;20028;-68
2023/02/06 14:01:48;;;;;;;10.18;4.50;;;;;;;;;;5085056;28;20048;-66
2023/02/06 14:04:33;;;;;;;10.13;4.10;;;;;;;;;;5090478;28;20020;-67
2023/02/06 14:07:14;;;;;;;17.17;7.22;;;;;;;;;;5089091;28;20118;-68
2023/02/06 14:09:48;;;;;;;20.27;8.52;;;;;;;;;;5089222;28;20047;-67
2023/02/06 14:12:33;;;;;;;16.40;7.05;;;;;;;;;;5089701;28;20445;-68
2023/02/06 14:14:58;;;;;;;;;;;;;;;;;;5088621;28;20388;-67
2023/02/06 14:17:32;;;;;;;12.00;4.60;;;;;;;;;;5089907;28;19924;-69
2023/02/06 14:20:06;;;;;;;9.65;4.43;;;;;;;;;;5089364;28;20020;-67
2023/02/06 14:22:43;;;;;;;11.70;4.53;;;;;;;;;;5090545;28;20046;-67
2023/02/06 14:25:20;;;;;;;12.25;4.72;;;;;;;;;;5085700;28;20047;-66
2023/02/06 14:27:54;;;;;;;9.80;4.32;;;;;;;;;;5094282;28;20070;-68
2023/02/06 14:30:28;;;;;;;11.65;4.57;;;;;;;;;;5093958;28;20024;-68
2023/02/06 14:33:12;;;;;;;8.75;4.28;;;;;;;;;;5096045;28;20020;-69
2023/02/06 14:35:56;;;;;;;9.88;4.25;;;;;;;;;;5100517;28;20020;-69
2023/02/06 14:38:40;;;;;;;11.40;4.22;;;;;;;;;;5100331;28;20035;-68